Mifflin, Pennsylvania
Current Conditions -  °F | °C
As of 2:53 PM on Friday 28 Nov 2014 (Local Time) from KUNV Reporting Station
Broken Clouds Broken Clouds  
Wind Chill: 26°   Ceiling: 3900
Heat Index: 36°   Visibility: 10mi
Dew Point: 14°   Wind: 15mph
Humidity: 41%   Direction: 280°W
Pressure: 30.2"   Gusts: NA
Location:  40.57°N, 77.4°W
Report Text: KUNV 281953Z 28013KT 10SM BKN039 02/M10 A3020
Loading
Personal Weather Stations






























Interactive Weather Map New forecast layout! Learn more

10-Day Weather Forecast

Advertisements
Track Severe Weather on mobile